Blandford, MA (01008)

3:07 PM EST on January 22, 2018 (GMT -0500)
East Otis | | Change Station
Active Advisory: Dense Fog Advisory

Elev 1542 ft 42.17 °N, 73.04 °W | Updated 3 seconds ago

Fog
Fog
35.6 °F
Feels Like 32 °F
N
3.8
Wind Variable Wind from WNW
Gusts 8.1 mph

Today
High -- | Low -- °F
--% Chance of Precip.
Yesterday
High -- | Low -- °F
Precip. -- in
Pressure 30.22 in
Visibility 1.2 miles
Clouds Overcast 400 ft
Windchill 32 °F
Dew Point 34 °F
Humidity 95%
Rainfall 0.07 in
Snow Depth Not available.
7:13 AM 4:53 PM
Waxing Crescent, 29% visible
METAR KBAF 221953Z 01006KT 1 1/4SM BR OVC004 02/02 A3020 RMK AO2 SLP232 T00220022
Pressure 30.22 in
Visibility 1.2 miles
Clouds Overcast 400 ft
Windchill 32 °F
Dew Point 34 °F
Humidity 95%
Rainfall 0.07 in
Snow Depth Not available.
7:13 AM 4:53 PM
Waxing Crescent, 29% visible
METAR KBAF 221953Z 01006KT 1 1/4SM BR OVC004 02/02 A3020 RMK AO2 SLP232 T00220022

Get Your Daily Forecast Email!

Thanks for signing up!

Be on the lookout for a verification email in your inbox.

You'll start receiving severe weather alerts in your inbox..

×

10-Day Weather Forecast

Almanac

Astronomy

Jan. 22, 2018 Rise Set
Actual Time
Civil Twilight
Nautical Twilight
Astronomical Twilight
Moon
Length of Visible Light
Length of Day
Tomorrow will be .
, % of the Moon is Illuminated

Today's Extremes

State Highs State Lows

Community

WunderPhotos

Category 6

Welcome to Category 6. This is the collective home for Weather Underground's featured writeups by Dr. Jeff Masters (right), Bob Henson (left), Chris Burt, and other regular contributors.

Nearby

Air Quality

  Air Quality AQ Index Pollutant
Not available.

Snow Depth

Station Depth Elevation

Earthquake Activity

City Distance Mag. Time & Date
Minimum magnitude displayed is 2.5.

Coastal Water Temperatures

Place Temperature

Stations

Nearby Weather Stations

Station Location Temp. Windchill Dew Point Humidity Wind Precip. Elev Updated Type
                   

Watches & Warnings

Dense Fog Advisory
Issued: 2:08 PM EST Jan. 22, 2018 – National Weather Service

... Dense fog advisory remains in effect until 9 am EST Tuesday...

* location... the high terrain of the Worcester Hills, northwest
Rhode Island and northeast Connecticut.

* Visibilities... one quarter mile or less at times.

* Timing... through mid morning on Tuesday.

* Impacts... dense fog will result in hazardous travel for
motorists into mid morning Tuesday. Drive with extra caution and
leave plenty of space between the vehicle in front of you.

Precautionary/preparedness actions...

A dense fog advisory means visibilities will frequently be
reduced to less than one quarter mile, for at least 3 hours. If
driving, slow down, use your headlights, and leave plenty of
distance ahead of you.



Frank

For the latest updates... please visit our webpage at
www.Weather.Gov/Boston

You can follow US on facebook at